Time,TemperatureF,DewpointF,PressureIn,WindDirection,WindDirectionDegrees,WindSpeedMPH,WindSpeedGustMPH,Humidity,HourlyPrecipIn,Conditions,Clouds,dailyrainin,SoftwareType,DateUTC
2013-04-01 00:03:00,45.0,42.0,27.56,NW,315,0.0,0.7,89,0.03,,,0.00,WUHU216HW,2013-04-01 07:03:00,
2013-04-01 00:08:00,45.2,42.2,27.56,NE,45,0.0,0.9,89,0.03,,,0.00,WUHU216HW,2013-04-01 07:08:00,
2013-04-01 00:13:00,45.2,42.2,27.56,NE,45,0.0,0.9,89,0.04,,,0.01,WUHU216HW,2013-04-01 07:13:00,
2013-04-01 00:18:00,45.0,42.3,27.56,ESE,113,0.7,1.8,90,0.04,,,0.01,WUHU216HW,2013-04-01 07:18:00,
2013-04-01 00:23:00,45.2,42.5,27.56,North,0,0.0,1.8,90,0.03,,,0.01,WUHU216HW,2013-04-01 07:23:00,
2013-04-01 00:28:00,45.0,42.3,27.56,North,0,1.8,1.8,90,0.03,,,0.01,WUHU216HW,2013-04-01 07:28:00,
2013-04-01 00:33:00,45.2,42.5,27.56,NE,45,0.4,1.8,90,0.03,,,0.01,WUHU216HW,2013-04-01 07:33:00,
2013-04-01 00:38:00,45.2,42.2,27.56,NW,315,0.0,1.8,89,0.03,,,0.01,WUHU216HW,2013-04-01 07:38:00,
2013-04-01 00:43:00,45.0,42.0,27.56,WNW,293,0.4,1.1,89,0.03,,,0.01,WUHU216HW,2013-04-01 07:43:00,
2013-04-01 00:48:00,45.0,42.0,27.56,NNW,338,0.0,1.1,89,0.02,,,0.01,WUHU216HW,2013-04-01 07:48:00,
2013-04-01 00:53:00,44.8,41.5,27.56,NNW,338,0.0,0.4,88,0.02,,,0.01,WUHU216HW,2013-04-01 07:53:00,
2013-04-01 00:58:00,44.6,41.3,27.56,WNW,293,0.0,1.1,88,0.01,,,0.01,WUHU216HW,2013-04-01 07:58:00,
2013-04-01 01:03:00,44.5,41.1,27.56,North,0,0.2,1.1,88,0.01,,,0.01,WUHU216HW,2013-04-01 08:03:00,
2013-04-01 01:08:00,44.5,41.1,27.56,SE,135,0.0,0.9,88,0.00,,,0.01,WUHU216HW,2013-04-01 08:08:00,
2013-04-01 01:13:00,44.3,41.0,27.56,WNW,293,0.0,1.1,88,0.00,,,0.01,WUHU216HW,2013-04-01 08:13:00,
2013-04-01 01:18:00,44.3,41.0,27.57,WNW,293,0.0,1.1,88,0.00,,,0.01,WUHU216HW,2013-04-01 08:18:00,
2013-04-01 01:23:00,44.3,41.0,27.56,WNW,293,0.0,0.4,88,0.00,,,0.01,WUHU216HW,2013-04-01 08:23:00,
2013-04-01 01:28:00,44.3,41.0,27.56,WNW,293,0.0,0.4,88,0.00,,,0.01,WUHU216HW,2013-04-01 08:28:00,
2013-04-01 01:33:00,44.1,40.8,27.57,SSW,203,0.2,0.7,88,0.00,,,0.01,WUHU216HW,2013-04-01 08:33:00,
2013-04-01 01:38:00,44.1,41.1,27.57,WNW,293,0.4,0.7,89,0.00,,,0.01,WUHU216HW,2013-04-01 08:38:00,
2013-04-01 01:43:00,44.1,41.1,27.57,WNW,293,0.0,0.4,89,0.00,,,0.01,WUHU216HW,2013-04-01 08:43:00,
2013-04-01 01:48:00,44.1,41.1,27.57,WNW,293,0.0,0.4,89,0.00,,,0.01,WUHU216HW,2013-04-01 08:48:00,
2013-04-01 01:53:00,43.9,41.0,27.57,WNW,293,0.0,0.0,89,0.00,,,0.01,WUHU216HW,2013-04-01 08:53:00,
2013-04-01 01:58:00,43.9,41.0,27.57,WNW,293,0.0,0.0,89,0.00,,,0.01,WUHU216HW,2013-04-01 08:58:00,
2013-04-01 02:03:00,43.9,40.6,27.57,WNW,293,0.0,0.0,88,0.00,,,0.01,WUHU216HW,2013-04-01 09:03:00,
2013-04-01 02:08:00,43.9,40.6,27.57,WNW,293,0.0,0.0,88,0.00,,,0.01,WUHU216HW,2013-04-01 09:08:00,
2013-04-01 02:13:00,43.7,40.4,27.57,WNW,293,0.0,0.0,88,0.00,,,0.01,WUHU216HW,2013-04-01 09:13:00,
2013-04-01 02:18:00,43.7,40.4,27.58,WNW,293,0.0,0.2,88,0.00,,,0.01,WUHU216HW,2013-04-01 09:18:00,
2013-04-01 02:23:00,43.9,40.6,27.57,WNW,293,0.0,0.2,88,0.00,,,0.01,WUHU216HW,2013-04-01 09:23:00,
2013-04-01 02:28:00,43.9,40.6,27.57,WNW,293,0.0,0.0,88,0.00,,,0.01,WUHU216HW,2013-04-01 09:28:00,
2013-04-01 02:33:00,44.1,40.8,27.57,WNW,293,0.0,0.4,88,0.00,,,0.01,WUHU216HW,2013-04-01 09:33:00,
2013-04-01 02:38:00,44.1,40.8,27.57,WNW,293,0.0,0.4,88,0.00,,,0.01,WUHU216HW,2013-04-01 09:38:00,
2013-04-01 02:43:00,44.1,40.8,27.58,WNW,293,0.0,0.0,88,0.00,,,0.01,WUHU216HW,2013-04-01 09:43:00,
2013-04-01 02:49:00,43.9,40.6,27.58,WNW,293,0.0,0.0,88,0.00,,,0.01,WUHU216HW,2013-04-01 09:49:00,
2013-04-01 02:54:00,44.1,41.1,27.58,WNW,293,0.0,0.0,89,0.00,,,0.01,WUHU216HW,2013-04-01 09:54:00,
2013-04-01 02:59:00,44.1,41.1,27.58,WNW,293,0.0,0.0,89,0.00,,,0.01,WUHU216HW,2013-04-01 09:59:00,
2013-04-01 03:04:00,44.1,41.1,27.58,WNW,293,0.0,0.0,89,0.00,,,0.01,WUHU216HW,2013-04-01 10:04:00,
2013-04-01 03:09:00,44.1,41.1,27.58,WNW,293,0.2,0.4,89,0.00,,,0.01,WUHU216HW,2013-04-01 10:09:00,
2013-04-01 03:14:00,44.3,41.3,27.58,WNW,293,0.0,0.4,89,0.00,,,0.01,WUHU216HW,2013-04-01 10:14:00,
2013-04-01 03:19:00,44.3,41.3,27.58,WNW,293,0.0,0.2,89,0.00,,,0.01,WUHU216HW,2013-04-01 10:19:00,
2013-04-01 03:24:00,44.3,41.3,27.58,WNW,293,0.0,0.0,89,0.00,,,0.01,WUHU216HW,2013-04-01 10:24:00,
2013-04-01 03:29:00,44.3,41.3,27.58,WNW,293,0.0,0.0,89,0.00,,,0.01,WUHU216HW,2013-04-01 10:29:00,
2013-04-01 03:34:00,44.3,41.3,27.58,WNW,293,0.0,0.0,89,0.00,,,0.01,WUHU216HW,2013-04-01 10:34:00,
2013-04-01 03:39:00,44.3,41.3,27.58,WNW,293,0.0,0.0,89,0.00,,,0.01,WUHU216HW,2013-04-01 10:39:00,
2013-04-01 03:44:00,44.3,41.3,27.58,WNW,293,0.0,0.0,89,0.00,,,0.01,WUHU216HW,2013-04-01 10:44:00,
2013-04-01 03:49:00,44.3,41.3,27.58,WNW,293,0.0,0.0,89,0.00,,,0.01,WUHU216HW,2013-04-01 10:49:00,
2013-04-01 03:54:00,44.3,41.3,27.58,WNW,293,0.0,0.0,89,0.00,,,0.01,WUHU216HW,2013-04-01 10:54:00,
2013-04-01 03:59:00,44.3,41.3,27.58,WNW,293,0.0,0.0,89,0.00,,,0.01,WUHU216HW,2013-04-01 10:59:00,
2013-04-01 04:04:00,44.3,41.3,27.58,WNW,293,0.0,0.0,89,0.00,,,0.01,WUHU216HW,2013-04-01 11:04:00,
2013-04-01 04:09:00,44.3,41.3,27.58,WNW,293,0.0,0.0,89,0.00,,,0.01,WUHU216HW,2013-04-01 11:09:00,
2013-04-01 04:14:00,44.3,41.3,27.58,WNW,293,0.0,0.0,89,0.00,,,0.01,WUHU216HW,2013-04-01 11:14:00,
2013-04-01 04:19:00,44.3,41.3,27.58,WNW,293,0.0,0.0,89,0.00,,,0.01,WUHU216HW,2013-04-01 11:19:00,
2013-04-01 04:24:00,44.3,41.3,27.58,WNW,293,0.0,0.0,89,0.00,,,0.01,WUHU216HW,2013-04-01 11:24:00,
2013-04-01 04:29:00,44.5,41.5,27.58,WNW,293,0.4,0.4,89,0.00,,,0.01,WUHU216HW,2013-04-01 11:29:00,
2013-04-01 04:34:00,44.5,41.5,27.58,NW,315,0.0,0.4,89,0.00,,,0.01,WUHU216HW,2013-04-01 11:34:00,
2013-04-01 04:39:00,44.6,41.7,27.58,NW,315,0.0,0.4,89,0.00,,,0.01,WUHU216HW,2013-04-01 11:39:00,
2013-04-01 04:44:00,44.6,41.9,27.58,SSW,203,0.2,0.7,90,0.00,,,0.01,WUHU216HW,2013-04-01 11:44:00,
2013-04-01 04:49:00,44.6,41.9,27.58,SSW,203,0.0,0.7,90,0.00,,,0.01,WUHU216HW,2013-04-01 11:49:00,
2013-04-01 04:54:00,44.6,42.2,27.58,SSW,203,0.0,0.2,91,0.00,,,0.01,WUHU216HW,2013-04-01 11:54:00,
2013-04-01 04:59:00,44.6,41.9,27.58,SSW,203,0.0,0.0,90,0.00,,,0.01,WUHU216HW,2013-04-01 11:59:00,
2013-04-01 05:04:00,44.6,41.9,27.58,SSW,203,0.0,0.0,90,0.00,,,0.01,WUHU216HW,2013-04-01 12:04:00,
2013-04-01 05:09:00,44.6,42.2,27.58,SSW,203,0.0,0.0,91,0.00,,,0.01,WUHU216HW,2013-04-01 12:09:00,
2013-04-01 05:14:00,44.8,42.1,27.58,SSW,203,0.0,0.0,90,0.00,,,0.01,WUHU216HW,2013-04-01 12:14:00,
2013-04-01 05:19:00,44.6,41.9,27.58,SSW,203,0.0,0.0,90,0.00,,,0.01,WUHU216HW,2013-04-01 12:19:00,
2013-04-01 05:24:00,44.6,41.9,27.59,SSW,203,0.0,0.0,90,0.00,,,0.01,WUHU216HW,2013-04-01 12:24:00,
2013-04-01 05:29:00,44.8,42.1,27.59,SSW,203,0.4,0.4,90,0.01,,,0.02,WUHU216HW,2013-04-01 12:29:00,
2013-04-01 05:34:00,44.8,42.1,27.59,NNE,23,0.0,0.4,90,0.01,,,0.02,WUHU216HW,2013-04-01 12:34:00,
2013-04-01 05:39:00,44.8,42.4,27.59,NNE,23,0.0,0.4,91,0.01,,,0.02,WUHU216HW,2013-04-01 12:39:00,
2013-04-01 05:44:00,44.8,42.1,27.59,NNE,23,0.0,0.0,90,0.01,,,0.02,WUHU216HW,2013-04-01 12:44:00,
2013-04-01 05:49:00,45.0,42.3,27.59,NNE,23,0.0,0.2,90,0.01,,,0.02,WUHU216HW,2013-04-01 12:49:00,
2013-04-01 05:54:00,45.0,42.6,27.59,ESE,113,0.9,1.1,91,0.01,,,0.02,WUHU216HW,2013-04-01 12:54:00,
2013-04-01 05:59:00,45.0,42.6,27.58,East,90,0.0,1.1,91,0.01,,,0.02,WUHU216HW,2013-04-01 12:59:00,
2013-04-01 06:04:00,45.2,42.8,27.58,East,90,0.0,1.8,91,0.01,,,0.02,WUHU216HW,2013-04-01 13:04:00,
2013-04-01 06:09:00,45.2,42.8,27.58,NNE,23,0.0,1.8,91,0.01,,,0.02,WUHU216HW,2013-04-01 13:09:00,
2013-04-01 06:14:00,45.2,42.8,27.58,NNE,23,0.2,2.5,91,0.01,,,0.02,WUHU216HW,2013-04-01 13:14:00,
2013-04-01 06:19:00,45.0,42.6,27.58,NNE,23,0.4,2.5,91,0.01,,,0.02,WUHU216HW,2013-04-01 13:19:00,
2013-04-01 06:24:00,45.0,42.6,27.58,SSW,203,0.0,2.0,91,0.00,,,0.02,WUHU216HW,2013-04-01 13:24:00,
2013-04-01 06:29:00,45.0,42.6,27.59,SSW,203,0.0,0.4,91,0.00,,,0.02,WUHU216HW,2013-04-01 13:29:00,
2013-04-01 06:34:00,44.8,42.4,27.59,SW,225,0.0,0.2,91,0.00,,,0.02,WUHU216HW,2013-04-01 13:34:00,
2013-04-01 06:39:00,44.6,42.2,27.59,NNW,338,0.0,0.4,91,0.00,,,0.02,WUHU216HW,2013-04-01 13:39:00,
2013-04-01 06:44:00,44.6,41.9,27.59,NNW,338,0.0,0.4,90,0.00,,,0.02,WUHU216HW,2013-04-01 13:44:00,
2013-04-01 06:49:00,44.5,41.8,27.59,NNW,338,0.0,0.4,90,0.00,,,0.02,WUHU216HW,2013-04-01 13:49:00,
2013-04-01 06:54:00,44.3,41.3,27.59,NNW,338,0.0,0.0,89,0.00,,,0.02,WUHU216HW,2013-04-01 13:54:00,
2013-04-01 06:59:00,44.1,41.1,27.59,NNW,338,0.0,0.0,89,0.00,,,0.02,WUHU216HW,2013-04-01 13:59:00,
2013-04-01 07:04:00,43.9,41.0,27.60,NNW,338,0.0,0.0,89,0.00,,,0.02,WUHU216HW,2013-04-01 14:04:00,
2013-04-01 07:09:00,43.7,40.8,27.60,NNW,338,0.0,0.0,89,0.00,,,0.02,WUHU216HW,2013-04-01 14:09:00,
2013-04-01 07:14:00,43.6,40.6,27.60,NNW,338,0.0,0.0,89,0.00,,,0.02,WUHU216HW,2013-04-01 14:14:00,
2013-04-01 07:19:00,43.4,40.4,27.60,NNW,338,0.0,0.0,89,0.00,,,0.02,WUHU216HW,2013-04-01 14:19:00,
2013-04-01 07:24:00,43.4,40.4,27.60,NNW,338,0.0,0.4,89,0.00,,,0.02,WUHU216HW,2013-04-01 14:24:00,
2013-04-01 07:29:00,43.4,40.4,27.61,NNW,338,0.0,0.4,89,0.00,,,0.02,WUHU216HW,2013-04-01 14:29:00,
2013-04-01 07:34:00,43.4,40.4,27.61,NNW,338,0.0,0.2,89,0.00,,,0.02,WUHU216HW,2013-04-01 14:34:00,
2013-04-01 07:39:00,43.4,40.4,27.61,NNW,338,0.0,0.0,89,0.00,,,0.02,WUHU216HW,2013-04-01 14:39:00,
2013-04-01 07:44:00,43.6,40.6,27.61,NNW,338,0.0,0.0,89,0.00,,,0.02,WUHU216HW,2013-04-01 14:44:00,
2013-04-01 07:49:00,43.7,41.0,27.61,NNW,338,0.0,0.0,90,0.00,,,0.02,WUHU216HW,2013-04-01 14:49:00,
2013-04-01 07:54:00,43.7,40.8,27.61,NNW,338,0.0,0.0,89,0.00,,,0.02,WUHU216HW,2013-04-01 14:54:00,
2013-04-01 07:59:00,44.1,41.4,27.62,NNW,338,0.0,0.0,90,0.00,,,0.02,WUHU216HW,2013-04-01 14:59:00,
2013-04-01 08:04:00,44.5,41.8,27.62,NNW,338,0.0,0.0,90,0.00,,,0.02,WUHU216HW,2013-04-01 15:04:00,
2013-04-01 08:09:00,44.6,42.2,27.62,NNW,338,0.0,0.0,91,0.00,,,0.02,WUHU216HW,2013-04-01 15:09:00,
2013-04-01 08:14:00,45.0,42.6,27.62,NNW,338,0.0,0.0,91,0.00,,,0.02,WUHU216HW,2013-04-01 15:14:00,
2013-04-01 08:19:00,45.4,42.9,27.62,NNW,338,0.0,0.0,91,0.00,,,0.02,WUHU216HW,2013-04-01 15:19:00,
2013-04-01 08:24:00,45.7,43.3,27.62,NNW,338,0.0,0.0,91,0.00,,,0.02,WUHU216HW,2013-04-01 15:24:00,
2013-04-01 08:29:00,45.7,43.3,27.62,NNW,338,0.0,0.2,91,0.00,,,0.02,WUHU216HW,2013-04-01 15:29:00,
2013-04-01 08:34:00,46.1,43.7,27.62,NNW,338,0.0,0.2,91,0.00,,,0.02,WUHU216HW,2013-04-01 15:34:00,
2013-04-01 08:39:00,46.4,44.0,27.62,NNW,338,0.0,0.0,91,0.00,,,0.02,WUHU216HW,2013-04-01 15:39:00,
2013-04-01 08:44:00,46.8,44.4,27.62,NNW,338,0.0,0.0,91,0.00,,,0.02,WUHU216HW,2013-04-01 15:44:00,
2013-04-01 08:49:00,47.0,44.6,27.62,NNW,338,0.0,0.0,91,0.00,,,0.02,WUHU216HW,2013-04-01 15:49:00,
2013-04-01 08:54:00,47.2,44.7,27.62,NNE,23,0.0,0.4,91,0.00,,,0.02,WUHU216HW,2013-04-01 15:54:00,
2013-04-01 08:59:00,47.3,44.9,27.63,NNE,23,0.0,0.4,91,0.00,,,0.02,WUHU216HW,2013-04-01 15:59:00,
2013-04-01 09:04:00,47.7,45.0,27.63,ESE,113,0.0,0.4,90,0.00,,,0.02,WUHU216HW,2013-04-01 16:04:00,
2013-04-01 09:09:00,48.1,45.4,27.63,ESE,113,0.0,0.4,90,0.00,,,0.02,WUHU216HW,2013-04-01 16:09:00,
2013-04-01 09:14:00,48.2,45.5,27.63,ESE,113,0.0,0.0,90,0.00,,,0.02,WUHU216HW,2013-04-01 16:14:00,
2013-04-01 09:19:00,48.6,45.9,27.63,ESE,113,0.0,0.4,90,0.00,,,0.02,WUHU216HW,2013-04-01 16:19:00,
2013-04-01 09:24:00,48.6,45.5,27.63,SSE,158,0.0,0.9,89,0.00,,,0.02,WUHU216HW,2013-04-01 16:24:00,
2013-04-01 09:29:00,49.1,45.7,27.64,NNE,23,0.0,0.9,88,0.00,,,0.02,WUHU216HW,2013-04-01 16:29:00,
2013-04-01 09:34:00,49.3,45.9,27.63,NE,45,0.0,0.7,88,0.00,,,0.02,WUHU216HW,2013-04-01 16:34:00,
2013-04-01 09:39:00,49.9,46.4,27.64,ENE,68,0.0,0.4,88,0.00,,,0.02,WUHU216HW,2013-04-01 16:39:00,
2013-04-01 09:44:00,50.0,46.3,27.64,SSW,203,0.0,0.4,87,0.00,,,0.02,WUHU216HW,2013-04-01 16:44:00,
2013-04-01 09:49:00,50.6,46.8,27.64,SSW,203,0.2,0.9,87,0.00,,,0.02,WUHU216HW,2013-04-01 16:49:00,
2013-04-01 09:54:00,50.9,47.2,27.64,ENE,68,1.1,1.6,87,0.00,,,0.02,WUHU216HW,2013-04-01 16:54:00,
2013-04-01 09:59:00,51.5,47.3,27.64,SSE,158,1.1,1.6,86,0.00,,,0.02,WUHU216HW,2013-04-01 16:59:00,
2013-04-01 10:04:00,51.8,47.7,27.64,South,180,1.8,2.5,86,0.00,,,0.02,WUHU216HW,2013-04-01 17:04:00,
2013-04-01 10:09:00,52.2,47.8,27.64,NNW,338,0.2,2.5,85,0.00,,,0.02,WUHU216HW,2013-04-01 17:09:00,
2013-04-01 10:15:00,52.4,48.0,27.64,SSW,203,0.0,1.6,85,0.00,,,0.02,WUHU216HW,2013-04-01 17:15:00,
2013-04-01 10:20:00,52.9,48.5,27.64,SSW,203,0.2,1.8,85,0.00,,,0.02,WUHU216HW,2013-04-01 17:20:00,
2013-04-01 10:25:00,53.5,48.8,27.64,North,0,0.0,1.8,84,0.00,,,0.02,WUHU216HW,2013-04-01 17:25:00,
2013-04-01 10:30:00,53.6,48.3,27.64,NNE,23,0.4,1.8,82,0.00,,,0.02,WUHU216HW,2013-04-01 17:30:00,
2013-04-01 10:35:00,54.0,48.1,27.64,NNE,23,1.1,1.8,80,0.00,,,0.02,WUHU216HW,2013-04-01 17:35:00,
2013-04-01 10:40:00,54.4,48.7,27.64,North,0,1.8,3.1,81,0.00,,,0.02,WUHU216HW,2013-04-01 17:40:00,
2013-04-01 10:45:00,54.5,48.5,27.64,North,0,0.4,3.1,80,0.00,,,0.02,WUHU216HW,2013-04-01 17:45:00,
2013-04-01 10:50:00,54.9,48.2,27.64,SSE,158,3.4,3.4,78,0.00,,,0.02,WUHU216HW,2013-04-01 17:50:00,
2013-04-01 10:55:00,55.3,48.5,27.65,East,90,0.4,3.4,78,0.00,,,0.02,WUHU216HW,2013-04-01 17:55:00,
2013-04-01 11:00:00,55.4,49.0,27.64,ENE,68,0.4,3.4,79,0.00,,,0.02,WUHU216HW,2013-04-01 18:00:00,
2013-04-01 11:05:00,55.4,48.6,27.65,SSE,158,2.2,2.2,78,0.00,,,0.02,WUHU216HW,2013-04-01 18:05:00,
2013-04-01 11:10:00,55.3,48.2,27.65,South,180,2.9,2.9,77,0.00,,,0.02,WUHU216HW,2013-04-01 18:10:00,
2013-04-01 11:15:00,55.1,48.0,27.65,South,180,2.5,2.9,77,0.00,,,0.02,WUHU216HW,2013-04-01 18:15:00,
2013-04-01 11:20:00,54.9,47.8,27.65,SE,135,0.7,2.9,77,0.00,,,0.02,WUHU216HW,2013-04-01 18:20:00,
2013-04-01 11:25:00,54.7,47.3,27.65,NNW,338,0.4,3.4,76,0.00,,,0.02,WUHU216HW,2013-04-01 18:25:00,
2013-04-01 11:30:00,54.7,47.6,27.65,ESE,113,0.9,3.4,77,0.00,,,0.02,WUHU216HW,2013-04-01 18:30:00,
2013-04-01 11:35:00,54.9,48.2,27.65,ENE,68,0.4,2.0,78,0.00,,,0.02,WUHU216HW,2013-04-01 18:35:00,
2013-04-01 11:40:00,55.1,48.3,27.65,ESE,113,0.2,1.6,78,0.00,,,0.02,WUHU216HW,2013-04-01 18:40:00,
2013-04-01 11:45:00,55.3,48.2,27.65,SSE,158,0.4,2.0,77,0.00,,,0.02,WUHU216HW,2013-04-01 18:45:00,
2013-04-01 11:50:00,55.3,48.2,27.65,SSW,203,0.9,2.0,77,0.00,,,0.02,WUHU216HW,2013-04-01 18:50:00,
2013-04-01 11:55:00,55.1,47.6,27.65,ESE,113,0.9,4.5,76,0.00,,,0.02,WUHU216HW,2013-04-01 18:55:00,
2013-04-01 12:00:00,55.3,47.8,27.65,SSW,203,0.4,4.5,76,0.00,,,0.02,WUHU216HW,2013-04-01 19:00:00,
2013-04-01 12:05:00,55.4,48.0,27.65,WNW,293,0.4,1.8,76,0.00,,,0.02,WUHU216HW,2013-04-01 19:05:00,
2013-04-01 12:10:00,55.8,48.3,27.65,SW,225,1.8,1.8,76,0.00,,,0.02,WUHU216HW,2013-04-01 19:10:00,
2013-04-01 12:15:00,55.8,48.0,27.65,ESE,113,0.0,2.0,75,0.00,,,0.02,WUHU216HW,2013-04-01 19:15:00,
2013-04-01 12:20:00,55.6,47.8,27.66,SSW,203,0.4,2.0,75,0.00,,,0.02,WUHU216HW,2013-04-01 19:20:00,
2013-04-01 12:25:00,55.6,47.8,27.65,ESE,113,1.6,2.5,75,0.00,,,0.02,WUHU216HW,2013-04-01 19:25:00,
2013-04-01 12:30:00,56.3,48.2,27.65,ESE,113,4.0,4.0,74,0.00,,,0.02,WUHU216HW,2013-04-01 19:30:00,
2013-04-01 12:35:00,56.5,48.0,27.65,NNW,338,1.1,4.0,73,0.00,,,0.02,WUHU216HW,2013-04-01 19:35:00,
2013-04-01 12:40:00,56.7,48.4,27.65,NNW,338,1.1,4.0,74,0.00,,,0.02,WUHU216HW,2013-04-01 19:40:00,
2013-04-01 12:45:00,56.9,48.2,27.65,South,180,2.0,2.0,73,0.00,,,0.02,WUHU216HW,2013-04-01 19:45:00,
2013-04-01 12:50:00,56.7,47.7,27.65,SSE,158,1.8,2.9,72,0.00,,,0.02,WUHU216HW,2013-04-01 19:50:00,
2013-04-01 12:55:00,56.5,48.0,27.65,NE,45,1.1,2.9,73,0.00,,,0.02,WUHU216HW,2013-04-01 19:55:00,
2013-04-01 13:00:00,56.7,48.1,27.64,SSE,158,2.5,3.6,73,0.00,,,0.02,WUHU216HW,2013-04-01 20:00:00,
2013-04-01 13:05:00,56.9,48.2,27.64,North,0,0.2,3.6,73,0.00,,,0.02,WUHU216HW,2013-04-01 20:05:00,
2013-04-01 13:10:00,57.6,48.2,27.64,South,180,4.0,5.6,71,0.00,,,0.02,WUHU216HW,2013-04-01 20:10:00,
2013-04-01 13:15:00,57.6,48.2,27.64,SSE,158,1.1,5.6,71,0.00,,,0.02,WUHU216HW,2013-04-01 20:15:00,
2013-04-01 13:20:00,58.3,49.3,27.64,SE,135,3.4,4.0,72,0.00,,,0.02,WUHU216HW,2013-04-01 20:20:00,
2013-04-01 13:25:00,58.5,48.3,27.64,SE,135,0.4,3.4,69,0.00,,,0.02,WUHU216HW,2013-04-01 20:25:00,
2013-04-01 13:30:00,58.7,49.0,27.64,ESE,113,0.9,3.4,70,0.00,,,0.02,WUHU216HW,2013-04-01 20:30:00,
2013-04-01 13:35:00,58.7,48.5,27.64,SSE,158,1.6,4.7,69,0.00,,,0.02,WUHU216HW,2013-04-01 20:35:00,
2013-04-01 13:40:00,58.9,47.9,27.64,SE,135,1.3,4.7,67,0.00,,,0.02,WUHU216HW,2013-04-01 20:40:00,
2013-04-01 13:45:00,58.5,48.0,27.64,SE,135,2.7,4.7,68,0.00,,,0.02,WUHU216HW,2013-04-01 20:45:00,
2013-04-01 13:50:00,58.3,47.8,27.64,South,180,1.1,4.7,68,0.00,,,0.02,WUHU216HW,2013-04-01 20:50:00,
2013-04-01 13:55:00,58.5,48.0,27.64,SSE,158,2.5,4.0,68,0.00,,,0.02,WUHU216HW,2013-04-01 20:55:00,
2013-04-01 14:00:00,58.5,47.5,27.64,South,180,0.2,4.0,67,0.00,,,0.02,WUHU216HW,2013-04-01 21:00:00,
2013-04-01 14:05:00,58.5,48.0,27.64,NNW,338,1.1,2.5,68,0.00,,,0.02,WUHU216HW,2013-04-01 21:05:00,
2013-04-01 14:10:00,58.3,47.3,27.63,NE,45,0.0,1.8,67,0.00,,,0.02,WUHU216HW,2013-04-01 21:10:00,
2013-04-01 14:15:00,58.1,48.0,27.64,ESE,113,1.8,2.5,69,0.00,,,0.02,WUHU216HW,2013-04-01 21:15:00,
2013-04-01 14:20:00,57.8,47.7,27.63,SSE,158,2.0,2.5,69,0.00,,,0.02,WUHU216HW,2013-04-01 21:20:00,
2013-04-01 14:25:00,58.0,47.9,27.63,SSE,158,0.4,2.5,69,0.00,,,0.02,WUHU216HW,2013-04-01 21:25:00,
2013-04-01 14:30:00,58.7,48.5,27.63,SW,225,1.1,2.5,69,0.00,,,0.02,WUHU216HW,2013-04-01 21:30:00,
2013-04-01 14:35:00,59.0,48.5,27.63,SSE,158,0.7,2.5,68,0.00,,,0.02,WUHU216HW,2013-04-01 21:35:00,
2013-04-01 14:40:00,58.7,47.7,27.63,South,180,2.7,6.0,67,0.00,,,0.02,WUHU216HW,2013-04-01 21:40:00,
2013-04-01 14:45:00,58.5,48.0,27.63,SSE,158,2.5,6.0,68,0.00,,,0.02,WUHU216HW,2013-04-01 21:45:00,
2013-04-01 14:50:00,58.9,47.9,27.63,SSW,203,2.5,2.9,67,0.00,,,0.02,WUHU216HW,2013-04-01 21:50:00,
2013-04-01 14:55:00,59.2,48.2,27.63,ESE,113,2.7,2.9,67,0.00,,,0.02,WUHU216HW,2013-04-01 21:55:00,
2013-04-01 15:00:00,59.4,48.1,27.63,SSW,203,2.0,4.0,66,0.00,,,0.02,WUHU216HW,2013-04-01 22:00:00,
2013-04-01 15:05:00,59.8,47.5,27.63,South,180,0.7,4.5,64,0.00,,,0.02,WUHU216HW,2013-04-01 22:05:00,
2013-04-01 15:10:00,59.9,47.7,27.63,NNE,23,1.1,4.5,64,0.00,,,0.02,WUHU216HW,2013-04-01 22:10:00,
2013-04-01 15:15:00,60.1,48.3,27.63,East,90,2.0,3.1,65,0.00,,,0.02,WUHU216HW,2013-04-01 22:15:00,
2013-04-01 15:20:00,60.1,48.3,27.63,South,180,0.7,4.3,65,0.00,,,0.02,WUHU216HW,2013-04-01 22:20:00,
2013-04-01 15:25:00,59.9,47.4,27.63,SSW,203,1.3,4.3,63,0.00,,,0.02,WUHU216HW,2013-04-01 22:25:00,
2013-04-01 15:30:00,59.4,47.2,27.63,ENE,68,1.1,3.8,64,0.00,,,0.02,WUHU216HW,2013-04-01 22:30:00,
2013-04-01 15:35:00,59.6,47.3,27.63,WNW,293,1.8,3.8,64,0.00,,,0.02,WUHU216HW,2013-04-01 22:35:00,
2013-04-01 15:40:00,59.8,47.5,27.63,NNW,338,1.1,3.1,64,0.00,,,0.02,WUHU216HW,2013-04-01 22:40:00,
2013-04-01 15:45:00,60.1,48.3,27.63,ENE,68,1.3,2.9,65,0.00,,,0.02,WUHU216HW,2013-04-01 22:45:00,
2013-04-01 15:50:00,59.8,47.2,27.63,SSW,203,1.3,2.9,63,0.00,,,0.02,WUHU216HW,2013-04-01 22:50:00,
2013-04-01 15:55:00,59.4,47.2,27.63,SSE,158,1.8,3.4,64,0.00,,,0.02,WUHU216HW,2013-04-01 22:55:00,
2013-04-01 16:00:00,59.0,46.8,27.63,ESE,113,3.1,4.7,64,0.00,,,0.02,WUHU216HW,2013-04-01 23:00:00,
2013-04-01 16:05:00,58.7,46.9,27.63,SSW,203,0.7,4.7,65,0.00,,,0.02,WUHU216HW,2013-04-01 23:05:00,
2013-04-01 16:10:00,58.9,46.7,27.63,South,180,2.5,3.6,64,0.00,,,0.02,WUHU216HW,2013-04-01 23:10:00,
2013-04-01 16:15:00,58.9,46.7,27.63,SW,225,0.4,3.6,64,0.00,,,0.02,WUHU216HW,2013-04-01 23:15:00,
2013-04-01 16:20:00,59.0,46.0,27.63,SE,135,2.0,4.7,62,0.00,,,0.02,WUHU216HW,2013-04-01 23:20:00,
2013-04-01 16:25:00,58.9,45.8,27.63,SW,225,0.2,4.7,62,0.00,,,0.02,WUHU216HW,2013-04-01 23:25:00,
2013-04-01 16:30:00,58.9,46.3,27.63,NNE,23,0.4,2.7,63,0.00,,,0.02,WUHU216HW,2013-04-01 23:30:00,
2013-04-01 16:35:00,59.0,46.0,27.63,North,0,0.4,2.5,62,0.00,,,0.02,WUHU216HW,2013-04-01 23:35:00,
2013-04-01 16:40:00,59.0,45.6,27.63,NE,45,0.4,2.0,61,0.00,,,0.02,WUHU216HW,2013-04-01 23:40:00,
2013-04-01 16:45:00,58.7,46.1,27.63,SE,135,0.4,0.9,63,0.00,,,0.02,WUHU216HW,2013-04-01 23:45:00,
2013-04-01 16:50:00,58.7,46.1,27.63,North,0,0.4,1.8,63,0.00,,,0.02,WUHU216HW,2013-04-01 23:50:00,
2013-04-01 16:55:00,58.3,45.7,27.63,NNE,23,0.4,1.8,63,0.00,,,0.02,WUHU216HW,2013-04-01 23:55:00,
2013-04-01 17:00:00,58.3,45.7,27.63,ESE,113,0.4,1.6,63,0.00,,,0.02,WUHU216HW,2013-04-02 00:00:00,
2013-04-01 17:05:00,58.3,46.2,27.63,SSW,203,0.0,1.3,64,0.00,,,0.02,WUHU216HW,2013-04-02 00:05:00,
2013-04-01 17:10:00,58.1,46.0,27.63,NNW,338,0.9,1.3,64,0.00,,,0.02,WUHU216HW,2013-04-02 00:10:00,
2013-04-01 17:15:00,58.0,45.8,27.63,NNW,338,0.2,1.1,64,0.00,,,0.02,WUHU216HW,2013-04-02 00:15:00,
2013-04-01 17:20:00,57.2,45.5,27.63,ESE,113,0.2,1.1,65,0.00,,,0.02,WUHU216HW,2013-04-02 00:20:00,
2013-04-01 17:25:00,56.9,45.2,27.63,WSW,248,0.0,0.9,65,0.00,,,0.02,WUHU216HW,2013-04-02 00:25:00,
2013-04-01 17:30:00,57.1,45.8,27.63,WNW,293,0.2,1.1,66,0.00,,,0.02,WUHU216HW,2013-04-02 00:30:00,
2013-04-01 17:35:00,56.9,45.6,27.63,ENE,68,0.0,1.1,66,0.00,,,0.02,WUHU216HW,2013-04-02 00:35:00,
2013-04-01 17:40:00,56.9,46.0,27.63,NNE,23,0.2,1.1,67,0.00,,,0.02,WUHU216HW,2013-04-02 00:40:00,
2013-04-01 17:45:00,56.9,45.6,27.63,WNW,293,0.0,1.1,66,0.00,,,0.02,WUHU216HW,2013-04-02 00:45:00,
2013-04-01 17:50:00,56.7,45.5,27.63,SSW,203,0.2,0.7,66,0.00,,,0.02,WUHU216HW,2013-04-02 00:50:00,
2013-04-01 17:55:00,56.5,45.6,27.63,South,180,0.4,0.9,67,0.00,,,0.02,WUHU216HW,2013-04-02 00:55:00,
2013-04-01 18:00:00,56.5,45.3,27.63,North,0,0.0,1.8,66,0.00,,,0.02,WUHU216HW,2013-04-02 01:00:00,
2013-04-01 18:05:00,56.3,45.1,27.63,ENE,68,0.0,1.8,66,0.00,,,0.02,WUHU216HW,2013-04-02 01:05:00,
2013-04-01 18:10:00,56.2,44.9,27.63,WNW,293,0.4,1.6,66,0.00,,,0.02,WUHU216HW,2013-04-02 01:10:00,
2013-04-01 18:15:00,56.2,45.4,27.63,North,0,0.2,0.7,67,0.00,,,0.02,WUHU216HW,2013-04-02 01:15:00,
2013-04-01 18:20:00,56.2,45.4,27.63,ESE,113,0.2,1.6,67,0.00,,,0.02,WUHU216HW,2013-04-02 01:20:00,
2013-04-01 18:25:00,56.0,45.5,27.63,East,90,0.9,3.8,68,0.00,,,0.02,WUHU216HW,2013-04-02 01:25:00,
2013-04-01 18:30:00,55.8,45.8,27.63,NW,315,0.0,3.8,69,0.00,,,0.02,WUHU216HW,2013-04-02 01:30:00,
2013-04-01 18:35:00,55.8,46.3,27.63,SE,135,0.2,2.5,70,0.00,,,0.02,WUHU216HW,2013-04-02 01:35:00,
2013-04-01 18:40:00,55.8,45.8,27.63,ENE,68,0.4,1.8,69,0.00,,,0.02,WUHU216HW,2013-04-02 01:40:00,
2013-04-01 18:45:00,55.6,45.6,27.63,ENE,68,0.2,1.8,69,0.00,,,0.02,WUHU216HW,2013-04-02 01:45:00,
2013-04-01 18:50:00,55.4,45.9,27.64,NNW,338,0.2,1.1,70,0.00,,,0.02,WUHU216HW,2013-04-02 01:50:00,
2013-04-01 18:55:00,55.1,45.5,27.63,East,90,0.0,1.6,70,0.00,,,0.02,WUHU216HW,2013-04-02 01:55:00,
2013-04-01 19:00:00,54.9,45.7,27.63,SSE,158,0.9,1.6,71,0.00,,,0.02,WUHU216HW,2013-04-02 02:00:00,
2013-04-01 19:05:00,54.7,45.6,27.64,East,90,0.4,0.9,71,0.00,,,0.02,WUHU216HW,2013-04-02 02:05:00,
2013-04-01 19:10:00,54.5,45.4,27.64,SSW,203,0.7,0.9,71,0.00,,,0.02,WUHU216HW,2013-04-02 02:10:00,
2013-04-01 19:15:00,54.4,45.6,27.64,NNW,338,0.0,0.7,72,0.00,,,0.02,WUHU216HW,2013-04-02 02:15:00,
2013-04-01 19:20:00,54.2,45.4,27.64,NNE,23,1.8,1.8,72,0.00,,,0.02,WUHU216HW,2013-04-02 02:20:00,
2013-04-01 19:25:00,53.8,45.4,27.64,NNE,23,0.0,1.8,73,0.00,,,0.02,WUHU216HW,2013-04-02 02:25:00,
2013-04-01 19:30:00,53.6,45.2,27.64,NNE,23,0.0,1.8,73,0.00,,,0.02,WUHU216HW,2013-04-02 02:30:00,
2013-04-01 19:35:00,53.3,44.8,27.64,NNW,338,0.0,0.4,73,0.00,,,0.02,WUHU216HW,2013-04-02 02:35:00,
2013-04-01 19:40:00,53.1,45.0,27.64,East,90,0.0,0.4,74,0.00,,,0.02,WUHU216HW,2013-04-02 02:40:00,
2013-04-01 19:45:00,52.9,44.8,27.64,East,90,0.0,0.9,74,0.00,,,0.02,WUHU216HW,2013-04-02 02:45:00,
2013-04-01 19:50:00,52.7,44.7,27.64,NE,45,0.4,1.3,74,0.00,,,0.02,WUHU216HW,2013-04-02 02:50:00,
2013-04-01 19:55:00,52.2,44.6,27.64,NNE,23,0.0,1.3,75,0.00,,,0.02,WUHU216HW,2013-04-02 02:55:00,
2013-04-01 20:01:00,52.0,44.4,27.64,North,0,0.0,0.4,75,0.00,,,0.02,WUHU216HW,2013-04-02 03:01:00,
2013-04-01 20:06:00,51.7,44.7,27.64,North,0,0.0,0.0,77,0.00,,,0.02,WUHU216HW,2013-04-02 03:06:00,
2013-04-01 20:11:00,51.5,44.6,27.64,North,0,0.0,0.0,77,0.00,,,0.02,WUHU216HW,2013-04-02 03:11:00,
2013-04-01 20:16:00,51.3,44.4,27.64,North,0,0.0,0.0,77,0.00,,,0.02,WUHU216HW,2013-04-02 03:16:00,
2013-04-01 20:21:00,50.9,44.3,27.64,North,0,0.0,0.0,78,0.00,,,0.02,WUHU216HW,2013-04-02 03:21:00,
2013-04-01 20:26:00,50.8,44.1,27.65,NE,45,0.0,0.0,78,0.00,,,0.02,WUHU216HW,2013-04-02 03:26:00,
2013-04-01 20:31:00,50.4,43.7,27.65,North,0,0.0,0.0,78,0.00,,,0.02,WUHU216HW,2013-04-02 03:31:00,
2013-04-01 20:36:00,50.0,43.7,27.65,North,0,0.0,0.2,79,0.00,,,0.02,WUHU216HW,2013-04-02 03:36:00,
2013-04-01 20:41:00,49.9,43.6,27.65,North,0,0.0,0.2,79,0.00,,,0.02,WUHU216HW,2013-04-02 03:41:00,
2013-04-01 20:46:00,49.7,43.4,27.65,North,0,0.0,0.2,79,0.00,,,0.02,WUHU216HW,2013-04-02 03:46:00,
2013-04-01 20:51:00,49.3,43.4,27.65,North,0,0.0,0.9,80,0.00,,,0.02,WUHU216HW,2013-04-02 03:51:00,
2013-04-01 20:56:00,48.8,43.5,27.65,NNE,23,0.0,0.9,82,0.00,,,0.02,WUHU216HW,2013-04-02 03:56:00,
2013-04-01 21:00:00,48.8,43.5,27.65,North,0,0.0,0.9,82,0.00,,,0.02,WUHU216HW,2013-04-02 04:00:00,
2013-04-01 21:05:00,48.4,43.1,27.66,North,0,0.0,0.4,82,0.00,,,0.02,WUHU216HW,2013-04-02 04:05:00,
2013-04-01 21:10:00,48.2,42.7,27.65,North,0,0.0,0.4,81,0.00,,,0.02,WUHU216HW,2013-04-02 04:10:00,
2013-04-01 21:15:00,48.1,42.5,27.66,NNE,23,0.2,0.4,81,0.00,,,0.02,WUHU216HW,2013-04-02 04:15:00,
2013-04-01 21:20:00,47.9,42.7,27.66,NNE,23,0.0,0.4,82,0.00,,,0.02,WUHU216HW,2013-04-02 04:20:00,
2013-04-01 21:25:00,47.5,42.6,27.66,NE,45,0.0,0.7,83,0.00,,,0.02,WUHU216HW,2013-04-02 04:25:00,
2013-04-01 21:30:00,47.3,42.5,27.66,ENE,68,0.0,0.9,83,0.00,,,0.02,WUHU216HW,2013-04-02 04:30:00,
2013-04-01 21:35:00,47.2,42.3,27.66,ENE,68,0.0,0.9,83,0.00,,,0.02,WUHU216HW,2013-04-02 04:35:00,
2013-04-01 21:40:00,47.0,42.1,27.66,ENE,68,0.0,0.4,83,0.00,,,0.02,WUHU216HW,2013-04-02 04:40:00,
2013-04-01 21:45:00,46.8,42.0,27.66,ENE,68,0.0,0.0,83,0.00,,,0.02,WUHU216HW,2013-04-02 04:45:00,
2013-04-01 21:50:00,46.6,41.8,27.66,NE,45,0.0,0.0,83,0.00,,,0.02,WUHU216HW,2013-04-02 04:50:00,
2013-04-01 21:55:00,46.4,41.6,27.66,NE,45,0.0,0.0,83,0.00,,,0.02,WUHU216HW,2013-04-02 04:55:00,
2013-04-01 22:00:00,46.3,41.8,27.66,NE,45,0.0,0.4,84,0.00,,,0.02,WUHU216HW,2013-04-02 05:00:00,
2013-04-01 22:05:00,46.1,41.9,27.66,NE,45,0.0,0.9,85,0.00,,,0.02,WUHU216HW,2013-04-02 05:05:00,
2013-04-01 22:10:00,45.9,41.7,27.66,NNE,23,0.0,0.9,85,0.00,,,0.02,WUHU216HW,2013-04-02 05:10:00,
2013-04-01 22:15:00,45.7,41.5,27.65,North,0,0.0,0.4,85,0.00,,,0.02,WUHU216HW,2013-04-02 05:15:00,
2013-04-01 22:20:00,45.5,41.1,27.66,North,0,0.0,0.4,84,0.00,,,0.02,WUHU216HW,2013-04-02 05:20:00,
2013-04-01 22:25:00,45.4,40.9,27.65,North,0,0.0,0.2,84,0.00,,,0.02,WUHU216HW,2013-04-02 05:25:00,
2013-04-01 22:30:00,45.4,41.1,27.65,North,0,0.0,0.0,85,0.00,,,0.02,WUHU216HW,2013-04-02 05:30:00,
2013-04-01 22:35:00,45.2,41.0,27.65,North,0,0.0,0.0,85,0.00,,,0.02,WUHU216HW,2013-04-02 05:35:00,
2013-04-01 22:40:00,45.2,40.7,27.65,North,0,0.0,0.0,84,0.00,,,0.02,WUHU216HW,2013-04-02 05:40:00,
2013-04-01 22:45:00,45.0,40.5,27.65,North,0,0.0,0.0,84,0.00,,,0.02,WUHU216HW,2013-04-02 05:45:00,
2013-04-01 22:50:00,44.8,40.6,27.65,North,0,0.0,0.0,85,0.00,,,0.02,WUHU216HW,2013-04-02 05:50:00,
2013-04-01 22:55:00,44.6,40.4,27.65,North,0,0.0,0.0,85,0.00,,,0.02,WUHU216HW,2013-04-02 05:55:00,
2013-04-01 23:00:00,44.5,40.2,27.64,North,0,0.0,0.7,85,0.00,,,0.02,WUHU216HW,2013-04-02 06:00:00,
2013-04-01 23:05:00,44.3,40.3,27.65,North,0,0.0,0.7,86,0.00,,,0.02,WUHU216HW,2013-04-02 06:05:00,
2013-04-01 23:10:00,44.3,40.1,27.65,NNW,338,0.0,0.7,85,0.00,,,0.02,WUHU216HW,2013-04-02 06:10:00,
2013-04-01 23:15:00,44.1,39.9,27.65,NNW,338,0.0,0.2,85,0.00,,,0.02,WUHU216HW,2013-04-02 06:15:00,
2013-04-01 23:20:00,44.1,39.9,27.65,NNW,338,0.0,0.0,85,0.00,,,0.02,WUHU216HW,2013-04-02 06:20:00,
2013-04-01 23:25:00,43.9,40.0,27.65,NNW,338,0.0,0.4,86,0.00,,,0.02,WUHU216HW,2013-04-02 06:25:00,
2013-04-01 23:30:00,43.7,39.8,27.64,North,0,0.0,0.4,86,0.00,,,0.02,WUHU216HW,2013-04-02 06:30:00,
2013-04-01 23:35:00,43.6,39.6,27.64,North,0,0.0,0.4,86,0.00,,,0.02,WUHU216HW,2013-04-02 06:35:00,
2013-04-01 23:40:00,43.6,39.6,27.64,North,0,0.0,0.0,86,0.00,,,0.02,WUHU216HW,2013-04-02 06:40:00,
2013-04-01 23:45:00,43.6,39.6,27.64,North,0,0.0,0.4,86,0.00,,,0.02,WUHU216HW,2013-04-02 06:45:00,
2013-04-01 23:50:00,43.4,39.8,27.64,North,0,0.0,0.4,87,0.00,,,0.02,WUHU216HW,2013-04-02 06:50:00,
2013-04-01 23:55:00,43.2,39.2,27.64,North,0,0.0,0.0,86,0.00,,,0.02,WUHU216HW,2013-04-02 06:55:00,